Time;durP1;ratioP1;P1;durP2;ratioP2;P2;SDS_P1;SDS_P2;PMS_P1;PMS_P2;Temp;Humidity;BMP_temperature;BMP_pressure;BME280_temperature;BME280_humidity;BME280_pressure;Samples;Min_cycle;Max_cycle;Signal;HPM_P1;HPM_P2
2022/08/17 00:01:10;;;;;;;7.87;7.07;;;21.90;99.50;;;;;;5055131;28;20516;-56
2022/08/17 00:03:39;;;;;;;8.20;7.00;;;21.70;99.90;;;;;;5055382;28;20469;-56
2022/08/17 00:06:10;;;;;;;8.37;6.80;;;21.60;99.90;;;;;;5055152;28;20937;-56
2022/08/17 00:08:40;;;;;;;8.47;7.70;;;21.60;99.90;;;;;;5055185;28;20858;-57
2022/08/17 00:11:08;;;;;;;6.97;6.37;;;21.70;99.90;;;;;;5055004;28;20493;-56
2022/08/17 00:13:38;;;;;;;7.90;7.10;;;21.70;99.90;;;;;;5055425;28;20893;-57
2022/08/17 00:16:10;;;;;;;6.87;6.27;;;21.70;99.90;;;;;;5054955;28;20520;-56
2022/08/17 00:18:37;;;;;;;8.10;7.30;;;21.80;99.90;;;;;;5055269;28;20426;-56
2022/08/17 00:21:08;;;;;;;8.80;8.00;;;21.90;99.90;;;;;;5055186;28;20556;-56
2022/08/17 00:23:36;;;;;;;8.37;7.60;;;21.90;99.90;;;;;;5055250;28;20516;-56
2022/08/17 00:26:03;;;;;;;7.93;7.10;;;21.90;99.90;;;;;;5055034;28;20451;-56
2022/08/17 00:28:31;;;;;;;7.70;6.90;;;21.80;99.90;;;;;;5054969;28;20782;-56
2022/08/17 00:30:58;;;;;;;9.43;7.30;;;21.80;99.90;;;;;;5054913;28;20489;-56
2022/08/17 00:33:29;;;;;;;8.30;7.07;;;21.80;99.90;;;;;;5054637;28;20453;-57
2022/08/17 00:35:58;;;;;;;8.30;7.50;;;21.90;99.90;;;;;;5054608;28;20434;-56
2022/08/17 00:38:28;;;;;;;7.80;7.10;;;21.80;99.90;;;;;;5054658;28;20449;-56
2022/08/17 00:40:58;;;;;;;8.93;7.70;;;21.60;99.90;;;;;;5054932;28;20511;-56
2022/08/17 00:43:31;;;;;;;9.07;8.27;;;21.40;99.90;;;;;;5054747;28;20461;-56
2022/08/17 00:45:59;;;;;;;7.70;7.13;;;21.30;99.90;;;;;;5054477;28;20433;-56
2022/08/17 00:48:27;;;;;;;7.80;7.00;;;21.30;99.90;;;;;;5054637;28;20529;-55
2022/08/17 00:51:00;;;;;;;9.10;7.83;;;21.40;99.90;;;;;;5054217;28;20484;-56
2022/08/17 00:53:32;;;;;;;8.00;7.20;;;21.30;99.90;;;;;;5054328;28;20536;-56
2022/08/17 00:56:01;;;;;;;9.43;7.70;;;21.30;99.90;;;;;;5054529;28;20416;-56
2022/08/17 00:58:30;;;;;;;10.00;7.87;;;21.30;99.90;;;;;;5054311;28;20794;-56
2022/08/17 01:01:00;;;;;;;8.53;7.33;;;21.40;99.90;;;;;;5054358;28;20472;-57
2022/08/17 01:03:28;;;;;;;7.83;7.13;;;21.40;99.90;;;;;;5054353;28;20536;-56
2022/08/17 01:05:58;;;;;;;8.30;7.60;;;21.50;99.90;;;;;;5054396;28;20551;-56
2022/08/17 01:08:29;;;;;;;8.40;7.60;;;21.50;99.90;;;;;;5054076;28;20434;-57
2022/08/17 01:11:00;;;;;;;8.57;7.60;;;21.50;99.90;;;;;;5053738;28;20953;-59
2022/08/17 01:13:31;;;;;;;9.10;8.20;;;21.40;99.90;;;;;;5054299;28;20461;-57
2022/08/17 01:16:01;;;;;;;8.67;7.97;;;21.40;99.90;;;;;;5054315;28;20513;-57
2022/08/17 01:18:29;;;;;;;8.50;7.70;;;21.40;99.90;;;;;;5054087;28;20509;-56
2022/08/17 01:20:58;;;;;;;8.00;6.87;;;21.50;99.90;;;;;;5053083;28;20966;-56
2022/08/17 01:23:27;;;;;;;8.40;7.67;;;21.50;99.90;;;;;;5053821;28;20956;-56
2022/08/17 01:25:57;;;;;;;8.20;7.20;;;21.40;99.90;;;;;;5054073;28;20548;-56
2022/08/17 01:28:27;;;;;;;8.47;7.50;;;21.30;99.90;;;;;;5053599;28;20446;-56
2022/08/17 01:30:55;;;;;;;11.23;8.03;;;21.10;99.90;;;;;;5053856;28;20572;-56
2022/08/17 01:33:23;;;;;;;9.13;7.60;;;21.00;99.90;;;;;;5053750;28;20434;-57
2022/08/17 01:35:50;;;;;;;8.10;7.40;;;20.90;99.90;;;;;;5053356;28;20453;-56
2022/08/17 01:38:18;;;;;;;8.23;7.47;;;20.80;99.90;;;;;;5053445;28;20445;-56
2022/08/17 01:40:51;;;;;;;8.20;7.40;;;20.80;99.90;;;;;;5053811;28;20477;-56
2022/08/17 01:43:23;;;;;;;9.47;8.40;;;20.90;99.90;;;;;;5053841;28;20426;-57
2022/08/17 01:45:55;;;;;;;9.03;8.23;;;20.90;99.90;;;;;;5053372;28;20504;-56
2022/08/17 01:48:23;;;;;;;9.70;8.70;;;20.80;99.90;;;;;;5053576;28;20434;-56
2022/08/17 01:50:52;;;;;;;7.90;7.30;;;20.80;99.90;;;;;;5033655;28;20536;-56
2022/08/17 01:53:23;;;;;;;8.30;7.60;;;20.80;99.90;;;;;;5033611;28;20629;-56
2022/08/17 01:55:54;;;;;;;8.53;7.73;;;20.80;99.90;;;;;;5033248;28;20590;-56
2022/08/17 01:58:22;;;;;;;9.53;8.53;;;20.90;99.90;;;;;;5033560;28;20462;-56
2022/08/17 02:00:51;;;;;;;8.83;7.93;;;20.90;99.90;;;;;;5033826;28;20557;-56
2022/08/17 02:03:19;;;;;;;9.03;7.90;;;20.90;99.90;;;;;;5033432;28;20450;-56
2022/08/17 02:05:47;;;;;;;10.70;7.50;;;20.90;99.90;;;;;;5033443;28;20450;-56
2022/08/17 02:08:14;;;;;;;10.80;8.30;;;20.80;99.90;;;;;;5033631;28;20450;-56
2022/08/17 02:10:41;;;;;;;9.50;8.53;;;20.80;99.90;;;;;;5032897;28;20519;-56
2022/08/17 02:13:10;;;;;;;10.53;9.50;;;20.90;99.90;;;;;;5033007;28;20864;-56
2022/08/17 02:15:37;;;;;;;8.13;7.30;;;20.90;99.90;;;;;;5033140;28;20497;-57
2022/08/17 02:18:06;;;;;;;10.20;8.60;;;20.80;99.90;;;;;;5033300;28;20476;-56
2022/08/17 02:20:34;;;;;;;10.40;8.63;;;20.90;99.90;;;;;;5032897;28;20468;-56
2022/08/17 02:23:03;;;;;;;8.00;7.30;;;20.90;99.90;;;;;;5032996;28;20532;-56
2022/08/17 02:25:32;;;;;;;8.47;7.73;;;20.90;99.90;;;;;;5033320;28;20842;-56
2022/08/17 02:27:59;;;;;;;9.40;8.00;;;20.70;99.90;;;;;;5032874;28;20550;-56
2022/08/17 02:30:29;;;;;;;9.67;8.77;;;20.70;99.90;;;;;;5032797;28;20549;-57
2022/08/17 02:32:56;;;;;;;9.00;6.90;;;20.70;99.90;;;;;;5036256;28;20453;-56
2022/08/17 02:35:23;;;;;;;10.70;7.83;;;20.50;99.90;;;;;;5036932;28;20450;-57
2022/08/17 02:37:51;;;;;;;8.30;7.57;;;20.60;99.90;;;;;;5036894;28;20446;-57
2022/08/17 02:40:20;;;;;;;8.23;7.43;;;20.70;99.90;;;;;;5036992;28;20477;-56
2022/08/17 02:42:47;;;;;;;9.00;8.10;;;20.80;99.90;;;;;;5036823;28;20894;-56
2022/08/17 02:45:19;;;;;;;7.83;7.13;;;20.90;99.90;;;;;;5036783;28;20481;-57
2022/08/17 02:47:47;;;;;;;7.13;6.63;;;20.90;99.90;;;;;;5037138;28;20517;-56
2022/08/17 02:50:17;;;;;;;8.50;7.73;;;20.90;99.90;;;;;;5051740;28;20849;-56
2022/08/17 02:52:46;;;;;;;9.30;8.50;;;20.90;99.90;;;;;;5056527;28;20822;-56
2022/08/17 02:55:16;;;;;;;10.00;8.43;;;20.90;99.90;;;;;;5056479;28;21004;-56
2022/08/17 02:57:43;;;;;;;9.20;8.10;;;20.90;99.90;;;;;;5056894;28;20491;-56
2022/08/17 03:00:14;;;;;;;9.20;8.30;;;20.80;99.90;;;;;;5056387;28;20526;-57
2022/08/17 03:02:43;;;;;;;9.17;8.00;;;20.70;99.90;;;;;;5056932;28;20433;-56
2022/08/17 03:05:15;;;;;;;8.23;7.63;;;20.80;99.90;;;;;;5056331;28;20449;-57
2022/08/17 03:07:42;;;;;;;12.77;8.40;;;20.90;99.90;;;;;;5056770;28;20429;-57
2022/08/17 03:10:11;;;;;;;8.00;7.20;;;20.90;99.90;;;;;;5056328;28;20465;-56
2022/08/17 03:12:40;;;;;;;10.33;9.43;;;20.80;99.90;;;;;;5056458;28;20484;-56
2022/08/17 03:15:10;;;;;;;9.30;8.50;;;20.80;99.90;;;;;;5056583;28;20449;-56
2022/08/17 03:17:37;;;;;;;14.63;8.60;;;20.70;99.90;;;;;;5056385;28;20441;-56
2022/08/17 03:20:06;;;;;;;8.83;7.80;;;20.70;99.90;;;;;;5056081;28;20429;-57
2022/08/17 03:22:39;;;;;;;9.53;8.40;;;20.80;99.90;;;;;;5056471;28;20441;-57
2022/08/17 03:25:08;;;;;;;7.83;7.13;;;20.70;99.90;;;;;;5056414;28;20525;-57
2022/08/17 03:27:36;;;;;;;8.20;7.40;;;20.80;99.90;;;;;;5055955;28;20456;-57
2022/08/17 03:30:04;;;;;;;8.40;7.60;;;20.70;99.90;;;;;;5055771;28;20539;-57
2022/08/17 03:32:37;;;;;;;7.53;6.57;;;20.70;99.90;;;;;;5056157;28;20495;-56
2022/08/17 03:35:05;;;;;;;9.30;8.50;;;20.60;99.90;;;;;;5055838;28;20429;-56
2022/08/17 03:37:32;;;;;;;7.90;7.20;;;20.60;99.90;;;;;;5055577;28;20453;-57
2022/08/17 03:40:01;;;;;;;9.97;7.10;;;20.60;99.90;;;;;;5055750;28;20457;-56
2022/08/17 03:42:29;;;;;;;8.10;7.40;;;20.60;99.90;;;;;;5055199;28;20437;-56
2022/08/17 03:44:57;;;;;;;8.67;7.70;;;20.50;99.90;;;;;;5055904;28;20495;-56
2022/08/17 03:58:25;;;;;;;9.43;7.80;;;20.60;99.90;;;;;;5055523;28;20413;-57
2022/08/17 04:00:52;;;;;;;8.10;7.30;;;20.60;99.90;;;;;;5055618;28;20483;-56
2022/08/17 04:03:19;;;;;;;8.70;7.87;;;20.50;99.90;;;;;;5055216;28;20453;-56
2022/08/17 04:05:46;;;;;;;8.20;7.03;;;20.60;99.90;;;;;;5055180;28;20870;-56
2022/08/17 04:08:14;;;;;;;9.17;8.30;;;20.50;99.90;;;;;;5055252;28;20949;-56
2022/08/17 04:10:42;;;;;;;7.97;7.10;;;20.50;99.90;;;;;;5055446;28;20473;-56
2022/08/17 04:13:10;;;;;;;8.40;7.40;;;20.40;99.90;;;;;;5055341;28;20443;-56
2022/08/17 04:15:37;;;;;;;8.80;8.00;;;20.40;99.90;;;;;;5055164;28;20540;-56
2022/08/17 04:18:06;;;;;;;10.30;7.53;;;20.50;99.90;;;;;;5055249;28;20492;-56
2022/08/17 04:20:33;;;;;;;7.83;7.13;;;20.60;99.90;;;;;;5055117;28;20469;-56
2022/08/17 04:23:03;;;;;;;7.80;7.10;;;20.40;99.90;;;;;;5055231;28;20499;-56
2022/08/17 04:25:32;;;;;;;10.10;7.80;;;20.20;99.90;;;;;;5054872;28;20441;-56
2022/08/17 04:28:01;;;;;;;8.77;7.97;;;20.30;99.90;;;;;;5055029;28;20544;-57
2022/08/17 04:30:30;;;;;;;8.10;7.30;;;20.30;99.90;;;;;;5054656;28;20549;-56
2022/08/17 04:33:01;;;;;;;9.40;8.20;;;20.50;99.90;;;;;;5054743;28;20480;-56
2022/08/17 04:35:30;;;;;;;9.00;7.30;;;20.50;99.90;;;;;;5054950;28;20801;-56
2022/08/17 04:37:58;;;;;;;7.13;6.53;;;20.50;99.90;;;;;;5054876;28;20451;-56
2022/08/17 04:43:16;;;;;;;8.80;6.90;;;20.60;99.90;;;;;;5054727;28;20401;-56
2022/08/17 04:45:45;;;;;;;10.90;6.90;;;20.60;99.90;;;;;;5054763;28;20516;-57
2022/08/17 04:48:13;;;;;;;8.40;7.33;;;20.60;99.90;;;;;;5054710;28;20485;-56
2022/08/17 04:50:44;;;;;;;8.43;7.63;;;20.60;99.90;;;;;;5054108;28;20847;-56
2022/08/17 04:53:11;;;;;;;9.90;8.03;;;20.60;99.90;;;;;;5054220;28;20957;-56
2022/08/17 04:55:39;;;;;;;8.47;7.67;;;20.60;99.90;;;;;;5053362;28;20942;-56
2022/08/17 04:58:06;;;;;;;8.90;8.00;;;20.50;99.90;;;;;;5054503;28;20498;-56
2022/08/17 05:00:36;;;;;;;9.30;8.30;;;20.60;99.90;;;;;;5054476;28;20501;-56
2022/08/17 05:03:03;;;;;;;10.70;7.33;;;20.60;99.90;;;;;;5054291;28;20446;-57
2022/08/17 05:05:35;;;;;;;8.40;7.73;;;20.80;99.90;;;;;;5054196;28;20532;-57
2022/08/17 05:08:04;;;;;;;8.67;7.80;;;20.90;99.90;;;;;;5054531;28;20449;-56
2022/08/17 05:10:33;;;;;;;7.77;7.17;;;20.70;99.90;;;;;;5054299;28;20513;-56
2022/08/17 05:13:03;;;;;;;7.53;6.70;;;20.60;99.90;;;;;;5053938;28;20568;-57
2022/08/17 05:15:31;;;;;;;7.70;6.73;;;20.60;99.90;;;;;;5054136;28;20456;-56
2022/08/17 05:18:00;;;;;;;12.93;7.20;;;20.80;99.90;;;;;;5053954;28;21037;-57
2022/08/17 05:20:27;;;;;;;12.57;6.77;;;20.90;99.90;;;;;;5053967;28;20491;-57
2022/08/17 05:22:57;;;;;;;7.73;7.03;;;20.90;99.90;;;;;;5053811;28;20476;-57
2022/08/17 05:25:30;;;;;;;9.47;7.90;;;21.00;99.90;;;;;;5053709;28;20788;-56
2022/08/17 05:27:58;;;;;;;7.43;6.63;;;21.10;99.90;;;;;;5054082;28;20847;-56
2022/08/17 05:30:27;;;;;;;8.77;7.77;;;21.10;99.90;;;;;;5053798;28;20465;-56
2022/08/17 05:32:55;;;;;;;9.43;8.40;;;21.10;99.90;;;;;;5053191;28;20477;-57
2022/08/17 05:35:24;;;;;;;8.93;7.10;;;21.20;99.90;;;;;;5053953;28;20871;-57
2022/08/17 05:37:52;;;;;;;8.83;8.03;;;21.30;99.90;;;;;;5053665;28;20501;-57
2022/08/17 05:40:20;;;;;;;10.00;9.10;;;21.30;99.90;;;;;;5053538;28;20501;-56
2022/08/17 05:42:48;;;;;;;10.23;9.23;;;21.30;99.90;;;;;;5053090;28;20482;-57
2022/08/17 05:45:17;;;;;;;11.00;10.00;;;21.40;99.90;;;;;;5053208;28;20485;-57
2022/08/17 05:47:46;;;;;;;11.80;9.63;;;21.40;99.90;;;;;;5053170;28;20454;-56
2022/08/17 05:50:22;;;;;;;18.87;10.33;;;21.60;99.90;;;;;;5052900;28;20485;-56
2022/08/17 05:53:01;;;;;;;10.70;8.83;;;21.60;99.90;;;;;;5053394;28;20469;-57
2022/08/17 05:55:35;;;;;;;10.67;9.57;;;21.60;99.90;;;;;;5053557;28;20505;-57
2022/08/17 05:58:16;;;;;;;14.73;10.20;;;21.60;99.90;;;;;;5053181;28;20460;-56
2022/08/17 06:00:54;;;;;;;12.77;8.90;;;21.70;99.90;;;;;;5053029;28;20461;-57
2022/08/17 06:03:42;;;;;;;11.57;10.20;;;21.70;99.90;;;;;;5053053;28;20433;-56
2022/08/17 06:06:24;;;;;;;13.17;9.47;;;21.80;99.90;;;;;;5052784;28;20417;-56
2022/08/17 06:09:04;;;;;;;10.60;9.63;;;21.80;99.90;;;;;;5052913;28;20924;-57
2022/08/17 06:11:41;;;;;;;9.77;8.73;;;21.90;99.90;;;;;;5053148;28;20473;-59
2022/08/17 06:14:27;;;;;;;10.57;9.30;;;22.20;99.90;;;;;;5053118;28;20426;-56
2022/08/17 06:16:58;;;;;;;15.60;9.50;;;21.90;99.90;;;;;;5052577;28;20520;-57
2022/08/17 06:19:33;;;;;;;9.90;9.00;;;21.90;99.90;;;;;;5053110;28;20458;-56
2022/08/17 06:22:04;;;;;;;11.10;10.10;;;22.00;99.90;;;;;;5053012;28;20489;-56
2022/08/17 06:24:38;;;;;;;10.90;9.30;;;22.10;99.90;;;;;;5052525;28;20756;-56
2022/08/17 06:27:12;;;;;;;9.93;8.93;;;22.10;99.90;;;;;;5052850;28;20428;-57
2022/08/17 06:29:46;;;;;;;10.73;9.83;;;22.10;99.90;;;;;;5052559;28;20430;-56
2022/08/17 06:32:14;;;;;;;10.63;9.73;;;22.40;99.90;;;;;;5052846;28;20489;-56
2022/08/17 06:34:43;;;;;;;9.50;7.87;;;22.50;99.90;;;;;;5052682;28;20449;-56
2022/08/17 06:37:29;;;;;;;15.20;10.73;;;22.50;99.90;;;;;;5052736;28;20449;-56
2022/08/17 06:40:14;;;;;;;9.77;8.60;;;22.70;99.90;;;;;;5052335;28;20851;-56
2022/08/17 06:42:51;;;;;;;15.60;8.60;;;22.80;99.90;;;;;;5052461;28;20465;-56
2022/08/17 06:45:23;;;;;;;11.37;9.20;;;22.80;99.90;;;;;;5052799;28;20796;-56
2022/08/17 06:47:58;;;;;;;9.57;8.00;;;22.70;99.90;;;;;;5052545;28;20430;-57
2022/08/17 06:50:34;;;;;;;9.47;8.47;;;22.90;99.90;;;;;;5052319;28;20845;-56
2022/08/17 06:53:08;;;;;;;11.20;8.30;;;23.00;99.90;;;;;;5052388;28;20495;-57
2022/08/17 06:55:45;;;;;;;9.57;8.07;;;23.10;99.90;;;;;;5052422;28;20426;-56
2022/08/17 06:58:13;;;;;;;8.63;7.60;;;23.20;99.90;;;;;;5052729;28;20463;-57
2022/08/17 07:00:44;;;;;;;8.80;8.00;;;23.40;99.90;;;;;;5052375;28;20481;-57
2022/08/17 07:03:17;;;;;;;10.00;8.63;;;23.50;99.90;;;;;;5052522;28;20437;-57
2022/08/17 07:05:48;;;;;;;12.90;8.30;;;23.70;99.90;;;;;;5052068;28;20433;-56
2022/08/17 07:08:21;;;;;;;12.53;7.40;;;23.90;99.90;;;;;;5052366;28;20495;-56
2022/08/17 07:10:53;;;;;;;13.27;8.03;;;24.00;99.90;;;;;;5052463;28;20834;-56
2022/08/17 07:13:31;;;;;;;9.93;8.90;;;24.10;99.40;;;;;;5052618;28;20833;-56
2022/08/17 07:16:15;;;;;;;17.30;8.50;;;24.30;99.20;;;;;;5052259;28;20433;-56
2022/08/17 07:18:42;;;;;;;9.27;7.60;;;24.40;99.30;;;;;;5054902;28;20429;-57
2022/08/17 07:21:20;;;;;;;9.87;7.20;;;24.40;98.60;;;;;;5056262;28;20445;-56
2022/08/17 07:24:00;;;;;;;11.43;7.17;;;24.40;98.10;;;;;;5056075;28;20452;-57
2022/08/17 07:26:29;;;;;;;7.50;6.80;;;24.40;97.70;;;;;;5055879;28;20434;-56
2022/08/17 07:28:56;;;;;;;9.00;6.97;;;24.50;97.50;;;;;;5056161;28;20453;-56
2022/08/17 07:31:25;;;;;;;7.97;7.27;;;;;;;;;;5055588;28;20551;-56
2022/08/17 07:34:01;;;;;;;8.37;7.20;;;24.50;97.20;;;;;;5055333;28;20523;-57
2022/08/17 07:36:32;;;;;;;7.90;7.10;;;24.50;97.10;;;;;;5055656;28;20468;-57
2022/08/17 07:39:01;;;;;;;8.83;7.97;;;24.50;97.20;;;;;;5055642;28;20437;-56
2022/08/17 07:41:35;;;;;;;8.30;7.50;;;24.50;97.20;;;;;;5055749;28;20582;-57
2022/08/17 07:44:02;;;;;;;7.67;6.90;;;24.60;97.20;;;;;;5055761;28;20854;-56
2022/08/17 07:49:21;;;;;;;8.53;7.73;;;24.80;96.40;;;;;;5055510;28;20512;-56
2022/08/17 07:51:57;;;;;;;8.13;7.23;;;24.80;96.20;;;;;;5055767;28;20871;-56
2022/08/17 07:54:30;;;;;;;9.57;7.53;;;25.00;96.30;;;;;;5055290;28;20472;-57
2022/08/17 07:57:00;;;;;;;7.63;7.00;;;25.10;96.00;;;;;;5055687;28;20458;-57
2022/08/17 07:59:30;;;;;;;7.53;6.83;;;25.10;95.60;;;;;;5055613;28;20515;-57
2022/08/17 08:02:15;;;;;;;7.27;6.60;;;25.20;96.20;;;;;;5055758;28;20531;-57
2022/08/17 08:04:45;;;;;;;7.83;7.13;;;25.30;95.90;;;;;;5055337;28;20492;-56
2022/08/17 08:07:24;;;;;;;7.53;6.87;;;25.30;95.60;;;;;;5055143;28;20445;-57
2022/08/17 08:10:02;;;;;;;9.23;7.37;;;25.30;95.60;;;;;;5055160;28;20511;-56
2022/08/17 08:12:36;;;;;;;10.10;7.53;;;25.40;96.10;;;;;;5054840;28;20469;-57
2022/08/17 08:15:17;;;;;;;14.73;8.13;;;25.30;95.30;;;;;;5054885;28;21004;-57
2022/08/17 08:17:51;;;;;;;7.97;7.17;;;25.70;95.30;;;;;;5055045;28;20781;-56
2022/08/17 08:20:32;;;;;;;10.83;7.90;;;26.00;94.80;;;;;;5055247;28;20526;-56
2022/08/17 08:23:10;;;;;;;8.70;6.40;;;26.50;93.80;;;;;;5054916;28;20433;-57
2022/08/17 08:25:47;;;;;;;9.30;6.03;;;26.60;93.30;;;;;;5054643;28;20520;-57
2022/08/17 08:28:23;;;;;;;7.87;7.17;;;26.70;92.50;;;;;;5054592;28;20440;-57
2022/08/17 08:31:08;;;;;;;7.67;6.87;;;26.50;93.30;;;;;;5055046;28;20555;-56
2022/08/17 08:33:50;;;;;;;7.53;6.90;;;26.30;92.80;;;;;;5054798;28;20465;-56
2022/08/17 08:36:27;;;;;;;11.10;7.57;;;26.10;93.10;;;;;;5054764;28;20436;-56
2022/08/17 08:39:00;;;;;;;8.00;7.30;;;26.00;93.90;;;;;;5054558;28;20468;-57
2022/08/17 08:41:43;;;;;;;9.27;7.27;;;25.90;93.80;;;;;;5054935;28;20477;-57
2022/08/17 08:44:29;;;;;;;8.67;7.20;;;25.60;93.20;;;;;;5054769;28;20521;-56
2022/08/17 08:47:02;;;;;;;11.50;8.50;;;25.50;93.30;;;;;;5054517;28;20437;-56
2022/08/17 08:49:46;;;;;;;8.57;7.27;;;25.60;94.00;;;;;;5054129;28;20568;-57
2022/08/17 08:52:36;;;;;;;10.10;7.20;;;25.50;93.80;;;;;;5054359;28;20465;-56
2022/08/17 08:55:11;;;;;;;7.73;6.93;;;25.40;94.70;;;;;;5054340;28;20787;-56
2022/08/17 08:57:44;;;;;;;14.60;8.07;;;25.40;94.40;;;;;;5054255;28;20898;-56
2022/08/17 09:00:16;;;;;;;8.70;7.60;;;25.50;94.00;;;;;;5054323;28;20504;-56
2022/08/17 09:03:17;;;;;;;9.13;7.20;;;25.30;95.00;;;;;;5054338;28;20760;-57
2022/08/17 09:06:11;;;;;;;8.50;7.17;;;25.30;94.80;;;;;;5043326;28;20921;-56
2022/08/17 09:08:52;;;;;;;11.90;7.00;;;25.30;95.10;;;;;;5053858;28;20512;-56
2022/08/17 09:11:30;;;;;;;8.43;7.57;;;25.30;94.50;;;;;;5054319;28;20469;-56
2022/08/17 09:14:11;;;;;;;11.60;7.63;;;25.40;94.90;;;;;;5053743;28;20464;-56
2022/08/17 09:16:45;;;;;;;8.13;7.30;;;25.40;95.00;;;;;;5054131;28;20433;-57
2022/08/17 09:19:18;;;;;;;8.60;7.53;;;25.30;95.50;;;;;;5054145;28;20430;-57
2022/08/17 09:21:52;;;;;;;11.17;8.03;;;25.40;94.80;;;;;;5054100;28;20484;-57
2022/08/17 09:24:25;;;;;;;8.80;6.63;;;25.30;95.40;;;;;;5053920;28;20452;-57
2022/08/17 09:26:58;;;;;;;10.13;7.27;;;25.40;94.60;;;;;;5053885;28;20435;-57
2022/08/17 09:29:33;;;;;;;12.53;7.63;;;25.40;95.70;;;;;;5053788;28;20471;-57
2022/08/17 09:32:09;;;;;;;8.80;6.43;;;25.30;95.30;;;;;;5053562;28;20475;-57
2022/08/17 09:34:41;;;;;;;7.20;6.60;;;25.30;95.10;;;;;;5053363;28;20473;-57
2022/08/17 09:37:18;;;;;;;8.80;8.00;;;25.30;96.70;;;;;;5053278;28;20902;-57
2022/08/17 09:39:53;;;;;;;6.97;6.47;;;25.10;98.70;;;;;;5053431;28;20775;-56
2022/08/17 09:42:27;;;;;;;7.20;6.50;;;25.00;98.80;;;;;;5053266;28;20421;-57
2022/08/17 09:45:06;;;;;;;7.03;6.43;;;24.90;99.20;;;;;;5053555;28;20517;-57
2022/08/17 09:47:44;;;;;;;7.97;7.10;;;24.90;99.40;;;;;;5053375;28;20433;-57
2022/08/17 09:50:18;;;;;;;8.17;7.00;;;25.00;99.90;;;;;;5053035;28;20531;-57
2022/08/17 09:52:46;;;;;;;8.33;7.37;;;25.00;99.90;;;;;;5053200;28;20429;-57
2022/08/17 09:55:13;;;;;;;7.23;6.53;;;25.00;99.90;;;;;;5053324;28;20479;-56
2022/08/17 09:57:57;;;;;;;8.67;7.13;;;24.90;99.30;;;;;;5053343;28;20459;-56
2022/08/17 10:00:27;;;;;;;7.77;7.07;;;24.90;99.90;;;;;;5053384;28;20827;-57
2022/08/17 10:03:15;;;;;;;7.10;6.47;;;25.00;99.10;;;;;;5053027;28;20883;-57
2022/08/17 10:05:46;;;;;;;10.00;7.57;;;25.00;99.90;;;;;;5053226;28;20441;-57
2022/08/17 10:08:24;;;;;;;17.60;8.40;;;24.80;99.90;;;;;;5052977;28;20440;-57
2022/08/17 10:11:04;;;;;;;7.57;6.77;;;24.50;99.90;;;;;;5052982;28;20481;-56
2022/08/17 10:13:37;;;;;;;11.43;8.57;;;24.40;99.90;;;;;;5053008;28;20502;-57
2022/08/17 10:16:13;;;;;;;10.10;8.73;;;24.50;99.90;;;;;;5052726;28;20444;-56
2022/08/17 10:18:49;;;;;;;12.80;8.13;;;24.50;99.90;;;;;;5053159;28;20426;-57
2022/08/17 10:26:55;;;;;;;10.03;7.30;;;24.70;99.90;;;;;;5053015;28;20902;-57
2022/08/17 10:29:27;;;;;;;8.73;7.97;;;24.50;99.90;;;;;;5052857;28;20452;-57
2022/08/17 10:31:59;;;;;;;8.00;7.20;;;24.50;99.90;;;;;;5052513;28;20549;-57
2022/08/17 10:34:49;;;;;;;7.80;7.10;;;24.50;99.90;;;;;;5052644;28;20825;-57
2022/08/17 10:37:55;;;;;;;8.00;7.33;;;24.50;99.90;;;;;;5052449;28;20436;-57
2022/08/17 10:40:35;;;;;;;7.90;7.10;;;24.30;99.90;;;;;;5052479;28;20572;-57
2022/08/17 10:43:19;;;;;;;6.40;5.80;;;24.20;99.90;;;;;;5052661;28;20783;-57
2022/08/17 10:45:53;;;;;;;7.40;6.80;;;24.40;99.90;;;;;;5052830;28;20517;-57
2022/08/17 10:48:30;;;;;;;8.07;7.27;;;24.60;99.90;;;;;;5052865;28;20438;-57
2022/08/17 10:51:06;;;;;;;8.40;7.50;;;24.50;99.90;;;;;;5052576;28;20595;-57
2022/08/17 10:54:00;;;;;;;7.13;6.43;;;24.40;99.90;;;;;;5054482;28;20500;-57
2022/08/17 10:56:46;;;;;;;7.70;7.00;;;24.50;99.90;;;;;;5056701;28;20429;-56
2022/08/17 10:59:49;;;;;;;12.13;8.00;;;24.40;99.90;;;;;;5056724;28;20444;-58
2022/08/17 11:02:26;;;;;;;9.93;8.10;;;24.20;99.90;;;;;;5056699;28;20425;-58
2022/08/17 11:05:27;;;;;;;9.70;7.80;;;24.00;99.90;;;;;;5056105;28;20425;-58
2022/08/17 11:08:24;;;;;;;10.00;6.60;;;23.60;99.90;;;;;;5056219;28;20435;-58
2022/08/17 11:11:06;;;;;;;8.87;6.83;;;23.40;99.90;;;;;;5056469;28;20483;-58
2022/08/17 11:13:44;;;;;;;10.50;7.10;;;23.20;99.90;;;;;;5056252;28;20461;-57
2022/08/17 11:16:29;;;;;;;7.53;6.83;;;22.80;99.90;;;;;;5056425;28;20475;-58
2022/08/17 11:19:25;;;;;;;6.90;6.40;;;22.60;99.90;;;;;;5056061;28;20770;-57
2022/08/17 11:22:07;;;;;;;10.60;6.93;;;22.50;99.90;;;;;;5029039;28;20457;-58
2022/08/17 11:24:37;;;;;;;8.20;6.80;;;22.30;99.90;;;;;;5055928;28;20426;-58
2022/08/17 11:27:09;;;;;;;8.07;7.20;;;22.20;99.90;;;;;;5055698;28;20440;-57
2022/08/17 11:29:46;;;;;;;7.33;6.23;;;22.20;99.90;;;;;;5055771;28;20826;-58
2022/08/17 11:32:35;;;;;;;6.60;6.10;;;22.20;99.90;;;;;;5055861;28;20455;-58
2022/08/17 11:35:11;;;;;;;7.17;6.47;;;22.20;99.90;;;;;;5055960;28;20469;-58
2022/08/17 11:38:01;;;;;;;7.93;7.33;;;22.50;99.90;;;;;;5055835;28;20781;-58
2022/08/17 11:40:46;;;;;;;10.03;7.53;;;22.60;99.90;;;;;;5055402;28;21036;-57
2022/08/17 11:43:45;;;;;;;8.97;7.50;;;22.30;99.90;;;;;;5055642;28;20410;-58
2022/08/17 11:46:24;;;;;;;8.63;6.53;;;22.20;99.90;;;;;;5045154;28;20816;-57
2022/08/17 11:52:11;;;;;;;8.17;6.50;;;22.20;99.90;;;;;;5055375;28;20448;-55
2022/08/17 11:54:43;;;;;;;6.70;6.10;;;22.50;99.90;;;;;;5055042;28;20469;-56
2022/08/17 11:58:05;;;;;;;9.93;7.57;;;22.50;99.90;;;;;;5055343;28;20430;-57
2022/08/17 12:00:59;;;;;;;7.90;6.33;;;22.60;99.90;;;;;;5052906;28;20473;-56
2022/08/17 12:03:44;;;;;;;9.00;6.83;;;22.70;99.90;;;;;;5040895;28;20465;-57
2022/08/17 12:06:28;;;;;;;8.27;5.90;;;22.60;99.90;;;;;;5055565;28;20433;-58
2022/08/17 12:08:58;;;;;;;5.90;5.40;;;22.80;99.90;;;;;;5055101;28;20436;-57
2022/08/17 12:11:34;;;;;;;6.13;5.53;;;23.10;99.90;;;;;;5055081;28;20457;-57
2022/08/17 12:14:02;;;;;;;6.70;6.10;;;23.10;99.90;;;;;;5055422;28;20477;-58
2022/08/17 12:16:30;;;;;;;6.73;6.10;;;23.20;99.90;;;;;;5055355;28;20855;-57
2022/08/17 12:19:01;;;;;;;6.80;5.90;;;23.30;99.90;;;;;;5054879;28;20477;-57
2022/08/17 12:21:49;;;;;;;8.87;6.30;;;23.50;99.90;;;;;;5055388;28;20461;-58
2022/08/17 12:24:31;;;;;;;9.80;7.10;;;23.60;99.90;;;;;;5054930;28;20460;-57
2022/08/17 12:27:03;;;;;;;8.57;7.43;;;23.60;99.90;;;;;;5054872;28;20902;-58
2022/08/17 12:29:32;;;;;;;7.83;6.83;;;23.60;99.90;;;;;;5055049;28;20508;-58
2022/08/17 12:32:02;;;;;;;6.57;5.90;;;23.60;99.90;;;;;;5054919;28;20469;-58
2022/08/17 12:34:34;;;;;;;7.00;6.40;;;23.90;99.90;;;;;;5054749;28;20876;-57
2022/08/17 12:37:06;;;;;;;7.13;6.43;;;23.90;99.90;;;;;;5055078;28;20426;-58
2022/08/17 12:39:33;;;;;;;10.10;6.27;;;24.10;99.90;;;;;;5054323;28;20560;-56
2022/08/17 12:42:01;;;;;;;7.17;6.57;;;24.20;99.90;;;;;;5054244;28;20965;-57
2022/08/17 12:44:31;;;;;;;7.27;5.87;;;24.20;99.90;;;;;;5054737;28;20445;-58
2022/08/17 12:47:03;;;;;;;7.90;7.10;;;24.20;99.90;;;;;;5054372;28;20452;-58
2022/08/17 12:49:34;;;;;;;6.40;5.80;;;24.20;99.90;;;;;;5054314;28;20902;-57
2022/08/17 12:52:14;;;;;;;6.77;6.17;;;24.20;99.90;;;;;;5054277;28;20978;-56
2022/08/17 12:54:55;;;;;;;9.23;5.93;;;24.10;99.90;;;;;;5054302;28;20475;-57
2022/08/17 12:57:26;;;;;;;6.27;5.70;;;24.10;99.90;;;;;;5054384;28;20944;-57
2022/08/17 12:59:59;;;;;;;10.47;6.77;;;24.20;99.90;;;;;;5054184;28;20921;-57
2022/08/17 13:02:41;;;;;;;6.47;5.87;;;24.50;99.90;;;;;;5054112;28;20902;-58
2022/08/17 13:05:17;;;;;;;6.23;5.60;;;24.80;99.90;;;;;;5054193;28;20418;-57
2022/08/17 13:07:46;;;;;;;7.50;6.37;;;25.20;99.90;;;;;;5054135;28;20440;-57
2022/08/17 13:10:25;;;;;;;6.33;5.67;;;25.50;99.90;;;;;;5054114;28;20534;-58
2022/08/17 13:12:53;;;;;;;6.70;6.10;;;26.20;99.90;;;;;;5054335;28;20441;-58
2022/08/17 13:15:28;;;;;;;6.83;5.63;;;26.70;99.90;;;;;;5052775;28;20489;-57
2022/08/17 13:18:01;;;;;;;7.73;6.70;;;27.30;99.90;;;;;;5054044;28;20429;-58
2022/08/17 13:20:28;;;;;;;6.27;5.77;;;27.30;99.90;;;;;;5053867;28;20465;-57
2022/08/17 13:22:58;;;;;;;7.80;4.77;;;27.70;99.90;;;;;;5053719;28;20451;-57
2022/08/17 13:25:27;;;;;;;5.57;5.07;;;27.50;99.10;;;;;;5053532;28;20528;-58
2022/08/17 13:27:55;;;;;;;5.17;4.73;;;27.60;99.90;;;;;;5053681;28;20460;-58
2022/08/17 13:30:27;;;;;;;6.53;5.03;;;27.80;98.10;;;;;;5053892;28;20460;-57
2022/08/17 13:32:57;;;;;;;5.13;4.73;;;27.90;98.30;;;;;;5053595;28;20438;-58
2022/08/17 13:35:43;;;;;;;6.07;5.57;;;27.80;96.30;;;;;;5053328;28;20489;-57
2022/08/17 13:38:15;;;;;;;7.33;5.13;;;28.30;97.20;;;;;;5053370;28;20483;-57
2022/08/17 13:40:47;;;;;;;5.87;5.37;;;;;;;;;;5053169;28;20969;-57
2022/08/17 13:43:44;;;;;;;6.13;5.63;;;28.70;93.90;;;;;;5053589;28;20436;-58